Time;durP1;ratioP1;P1;durP2;ratioP2;P2;SDS_P1;SDS_P2;PMS_P1;PMS_P2;Temp;Humidity;BMP_temperature;BMP_pressure;BME280_temperature;BME280_humidity;BME280_pressure;Samples;Min_cycle;Max_cycle;Signal;HPM_P1;HPM_P2
2021/03/30 00:00:14;;;;;;;21.33;9.48;;;13.90;99.90;;;;;;1939200;73;21069;-70
2021/03/30 00:02:41;;;;;;;21.33;9.90;;;13.90;99.90;;;;;;1915601;74;21030;-71
2021/03/30 00:05:09;;;;;;;25.12;9.80;;;13.90;99.90;;;;;;1922070;73;21140;-70
2021/03/30 00:07:37;;;;;;;19.37;9.83;;;13.80;99.90;;;;;;1916918;74;21159;-70
2021/03/30 00:10:07;;;;;;;20.27;9.48;;;13.80;99.90;;;;;;1924759;74;21069;-71
2021/03/30 00:12:34;;;;;;;22.48;10.25;;;13.80;99.90;;;;;;1916154;74;21057;-71
2021/03/30 00:15:02;;;;;;;23.12;9.93;;;13.70;99.90;;;;;;1920741;74;21137;-72
2021/03/30 00:17:29;;;;;;;25.92;9.50;;;13.70;99.90;;;;;;1919801;73;21015;-69
2021/03/30 00:19:57;;;;;;;19.12;9.75;;;13.70;99.90;;;;;;1922487;73;21515;-69
2021/03/30 00:22:24;;;;;;;20.25;9.95;;;13.70;99.90;;;;;;1916681;74;21536;-70
2021/03/30 00:24:52;;;;;;;18.37;9.95;;;13.70;99.90;;;;;;1919441;74;21035;-70
2021/03/30 00:27:19;;;;;;;23.73;10.23;;;13.60;99.90;;;;;;1915510;73;21003;-70
2021/03/30 00:29:47;;;;;;;23.92;9.83;;;13.60;99.90;;;;;;1929421;74;21524;-70
2021/03/30 00:32:15;;;;;;;22.75;9.70;;;13.60;99.90;;;;;;1918974;74;21058;-70
2021/03/30 00:34:42;;;;;;;19.00;9.83;;;13.60;99.90;;;;;;1920202;74;21205;-70
2021/03/30 00:37:10;;;;;;;23.98;10.43;;;13.50;99.90;;;;;;1921792;74;21232;-70
2021/03/30 00:39:37;;;;;;;19.70;9.65;;;13.60;99.90;;;;;;1922702;74;21272;-70
2021/03/30 00:42:05;;;;;;;17.87;9.08;;;13.60;99.90;;;;;;1916264;74;21174;-70
2021/03/30 00:44:33;;;;;;;19.07;10.10;;;13.60;99.90;;;;;;1937326;73;21149;-70
2021/03/30 00:47:02;;;;;;;24.37;11.08;;;13.50;99.90;;;;;;1903676;75;21110;-69
2021/03/30 00:49:33;;;;;;;31.40;11.20;;;13.40;99.90;;;;;;1905579;74;21159;-69
2021/03/30 00:52:02;;;;;;;19.05;10.95;;;13.50;99.90;;;;;;1905542;75;21090;-69
2021/03/30 00:54:29;;;;;;;18.00;9.50;;;13.50;99.90;;;;;;1907362;74;21069;-70
2021/03/30 00:56:57;;;;;;;19.50;9.33;;;13.50;99.90;;;;;;1993696;70;21048;-70
2021/03/30 00:59:25;;;;;;;20.35;10.82;;;13.40;99.90;;;;;;1913038;74;21093;-71
2021/03/30 01:01:53;;;;;;;19.65;10.38;;;13.40;99.90;;;;;;1911109;74;21195;-71
2021/03/30 01:04:20;;;;;;;20.92;10.70;;;13.40;99.90;;;;;;1916573;73;21100;-71
2021/03/30 01:06:48;;;;;;;20.70;10.58;;;13.40;99.90;;;;;;1910513;74;21611;-70
2021/03/30 01:09:41;;;;;;;23.87;11.00;;;13.40;99.90;;;;;;1912382;74;21066;-71
2021/03/30 01:12:11;;;;;;;22.55;11.30;;;13.40;99.90;;;;;;1908809;74;21086;-71
2021/03/30 01:14:45;;;;;;;23.57;11.40;;;13.30;99.90;;;;;;1910935;74;21078;-71
2021/03/30 01:17:24;;;;;;;21.20;10.85;;;13.30;99.90;;;;;;1911617;74;21117;-71
2021/03/30 01:20:24;;;;;;;20.20;11.25;;;13.30;99.90;;;;;;1909417;74;21098;-72
2021/03/30 01:23:19;;;;;;;22.67;10.63;;;13.30;99.90;;;;;;1912152;74;21062;-71
2021/03/30 01:25:56;;;;;;;22.65;10.80;;;13.20;99.90;;;;;;1908327;74;21150;-72
2021/03/30 01:28:29;;;;;;;26.73;12.40;;;13.10;99.90;;;;;;1914423;74;21143;-72
2021/03/30 01:30:58;;;;;;;25.23;11.40;;;13.20;99.90;;;;;;1905378;75;21610;-71
2021/03/30 01:33:29;;;;;;;19.62;11.10;;;13.10;99.90;;;;;;1991567;71;21037;-71
2021/03/30 01:35:58;;;;;;;23.45;10.45;;;13.10;99.90;;;;;;1987176;71;21114;-70
2021/03/30 01:38:26;;;;;;;22.07;11.73;;;13.20;99.90;;;;;;1986475;71;21104;-71
2021/03/30 01:40:56;;;;;;;23.05;10.98;;;13.30;99.90;;;;;;1908091;74;21268;-70
2021/03/30 01:43:25;;;;;;;19.10;10.90;;;13.30;99.90;;;;;;1909725;74;21062;-70
2021/03/30 01:45:58;;;;;;;21.52;11.43;;;13.40;99.90;;;;;;1915389;73;21172;-70
2021/03/30 01:48:25;;;;;;;;;;;13.40;99.90;;;;;;1912862;74;21089;-70
2021/03/30 01:50:54;;;;;;;19.32;11.08;;;13.40;99.90;;;;;;1912792;73;20208;-70
2021/03/30 01:53:24;;;;;;;21.33;11.78;;;13.40;99.90;;;;;;1914289;74;21082;-71
2021/03/30 01:55:54;;;;;;;19.65;11.03;;;13.40;99.90;;;;;;1912277;74;21231;-71
2021/03/30 01:58:23;;;;;;;21.50;11.15;;;13.50;99.90;;;;;;1911202;74;21136;-70
2021/03/30 02:00:54;;;;;;;21.57;10.32;;;13.50;99.90;;;;;;1913057;74;21617;-72
2021/03/30 02:03:22;;;;;;;23.47;11.68;;;13.70;99.90;;;;;;1915585;73;21929;-71
2021/03/30 02:05:50;;;;;;;22.95;11.38;;;13.80;99.90;;;;;;1909872;74;21121;-70
2021/03/30 02:08:18;;;;;;;17.32;10.05;;;13.80;99.90;;;;;;1913054;74;21117;-70
2021/03/30 02:10:54;;;;;;;27.45;11.15;;;13.90;99.90;;;;;;1915940;74;21500;-70
2021/03/30 02:13:32;;;;;;;23.02;10.90;;;13.80;99.90;;;;;;1911989;74;21118;-69
2021/03/30 02:15:56;;;;;;;19.55;9.80;;;13.80;99.90;;;;;;1906129;74;21133;-69
2021/03/30 02:18:27;;;;;;;22.77;10.50;;;13.80;99.90;;;;;;1911949;73;21608;-69
2021/03/30 02:21:00;;;;;;;21.25;10.30;;;13.70;99.90;;;;;;1932414;73;21154;-70
2021/03/30 02:23:29;;;;;;;13.60;9.38;;;13.70;99.90;;;;;;1898479;75;21169;-70
2021/03/30 02:25:58;;;;;;;16.30;9.30;;;13.60;99.90;;;;;;1906330;74;21128;-70
2021/03/30 02:28:42;;;;;;;17.10;9.45;;;13.60;99.90;;;;;;1905061;74;21208;-70
2021/03/30 02:31:05;;;;;;;17.77;10.80;;;13.50;99.90;;;;;;1911891;74;21178;-70
2021/03/30 02:33:34;;;;;;;20.35;10.20;;;13.40;99.90;;;;;;1920423;74;21123;-70
2021/03/30 02:36:03;;;;;;;14.33;9.85;;;13.50;99.90;;;;;;1915629;74;21187;-71
2021/03/30 02:38:32;;;;;;;21.57;10.30;;;13.40;99.90;;;;;;1919735;73;21022;-70
2021/03/30 02:41:00;;;;;;;14.78;9.50;;;13.50;99.90;;;;;;1922493;74;21087;-70
2021/03/30 02:43:29;;;;;;;18.27;9.80;;;13.40;99.90;;;;;;1918964;74;21081;-71
2021/03/30 02:45:59;;;;;;;21.17;10.50;;;13.40;99.90;;;;;;1925639;74;21078;-70
2021/03/30 02:48:28;;;;;;;22.73;9.58;;;13.40;99.90;;;;;;1930063;74;21006;-70
2021/03/30 02:50:56;;;;;;;17.77;10.93;;;13.40;99.90;;;;;;1941041;73;21638;-70
2021/03/30 02:53:24;;;;;;;19.45;10.05;;;13.40;99.90;;;;;;1927470;73;21630;-69
2021/03/30 02:55:52;;;;;;;15.63;9.80;;;13.30;99.90;;;;;;1927944;73;21121;-70
2021/03/30 02:58:21;;;;;;;20.43;10.48;;;13.30;99.90;;;;;;1920738;73;21147;-70
2021/03/30 03:00:50;;;;;;;18.42;10.55;;;13.30;99.90;;;;;;1913536;74;21211;-70
2021/03/30 03:03:19;;;;;;;16.40;10.48;;;13.30;99.90;;;;;;1922545;73;21096;-70
2021/03/30 03:05:46;;;;;;;17.65;10.18;;;13.30;99.90;;;;;;1928733;73;21263;-71
2021/03/30 03:08:15;;;;;;;16.50;10.30;;;13.30;99.90;;;;;;1918520;74;21441;-71
2021/03/30 03:10:44;;;;;;;22.80;11.33;;;13.20;99.90;;;;;;1913320;74;21539;-71
2021/03/30 03:13:17;;;;;;;17.70;11.15;;;13.30;99.90;;;;;;1926693;74;21074;-70
2021/03/30 03:15:45;;;;;;;20.35;10.20;;;13.30;99.90;;;;;;1921674;74;21187;-70
2021/03/30 03:18:16;;;;;;;16.12;9.45;;;13.30;99.90;;;;;;1918206;74;21073;-70
2021/03/30 03:20:46;;;;;;;18.75;9.73;;;13.30;99.90;;;;;;1927568;74;21038;-71
2021/03/30 03:23:15;;;;;;;19.67;10.45;;;13.20;99.90;;;;;;1939223;72;21610;-71
2021/03/30 03:25:44;;;;;;;22.32;10.70;;;13.10;99.90;;;;;;1903768;73;21344;-71
2021/03/30 03:28:13;;;;;;;17.52;10.08;;;13.10;99.90;;;;;;1905740;75;21927;-71
2021/03/30 03:30:42;;;;;;;20.62;10.90;;;13.00;99.90;;;;;;1904086;75;21430;-69
2021/03/30 03:33:14;;;;;;;20.43;10.80;;;13.00;99.90;;;;;;1986399;71;21489;-69
2021/03/30 03:35:44;;;;;;;26.95;11.20;;;13.00;99.90;;;;;;1914193;74;21066;-73
2021/03/30 03:38:13;;;;;;;15.90;10.13;;;13.00;99.90;;;;;;1908125;74;21528;-70
2021/03/30 03:40:40;;;;;;;20.57;10.80;;;13.10;99.90;;;;;;1912392;74;21648;-71
2021/03/30 03:43:08;;;;;;;20.82;9.98;;;13.20;99.90;;;;;;1912114;74;21548;-72
2021/03/30 03:45:37;;;;;;;20.70;10.40;;;13.20;99.90;;;;;;1943718;73;21108;-73
2021/03/30 03:48:05;;;;;;;19.50;10.58;;;13.30;99.90;;;;;;1920131;74;21062;-70
2021/03/30 03:50:32;;;;;;;19.82;10.30;;;13.30;99.90;;;;;;1918184;74;21023;-70
2021/03/30 03:53:01;;;;;;;17.37;10.40;;;13.30;99.90;;;;;;1923297;74;21147;-70
2021/03/30 03:55:29;;;;;;;17.55;9.90;;;13.30;99.90;;;;;;1915771;74;21241;-71
2021/03/30 03:58:03;;;;;;;20.08;10.08;;;13.20;99.90;;;;;;1917089;74;21073;-71
2021/03/30 04:00:31;;;;;;;17.12;9.85;;;13.20;99.90;;;;;;1920170;74;21038;-70
2021/03/30 04:03:19;;;;;;;18.12;10.25;;;13.10;99.90;;;;;;1916713;74;21131;-71
2021/03/30 04:06:09;;;;;;;18.37;10.03;;;13.20;99.90;;;;;;1920068;73;21095;-71
2021/03/30 04:08:39;;;;;;;22.17;10.23;;;13.10;99.90;;;;;;1916371;74;21211;-71
2021/03/30 04:11:07;;;;;;;18.35;9.93;;;13.00;99.90;;;;;;1901481;75;21135;-71
2021/03/30 04:13:37;;;;;;;17.70;9.48;;;13.00;99.90;;;;;;1986585;71;21587;-70
2021/03/30 04:16:06;;;;;;;18.55;10.00;;;12.80;99.90;;;;;;1912274;74;21292;-70
2021/03/30 04:18:35;;;;;;;16.60;9.58;;;12.70;99.90;;;;;;1911865;74;21636;-70
2021/03/30 04:21:05;;;;;;;18.05;10.15;;;12.60;99.90;;;;;;1916217;74;21093;-70
2021/03/30 04:23:41;;;;;;;16.93;10.20;;;12.60;99.90;;;;;;1911202;74;21094;-70
2021/03/30 04:26:02;;;;;;;13.55;9.43;;;12.50;99.90;;;;;;1912597;74;21121;-70
2021/03/30 04:28:30;;;;;;;19.75;9.43;;;12.40;99.90;;;;;;1915994;74;21151;-69
2021/03/30 04:30:57;;;;;;;15.65;10.50;;;12.30;99.90;;;;;;1910412;74;21520;-70
2021/03/30 04:33:25;;;;;;;15.32;10.08;;;12.30;99.90;;;;;;1906061;74;21147;-71
2021/03/30 04:35:52;;;;;;;19.90;10.55;;;12.20;99.90;;;;;;1987453;71;21072;-71
2021/03/30 04:38:20;;;;;;;19.42;10.65;;;12.20;99.90;;;;;;1938531;73;21557;-71
2021/03/30 04:40:52;;;;;;;18.15;11.05;;;12.20;99.90;;;;;;1914654;74;21113;-70
2021/03/30 04:43:16;;;;;;;16.80;10.53;;;12.10;99.90;;;;;;1921122;74;22202;-70
2021/03/30 04:45:44;;;;;;;18.02;11.15;;;12.10;99.90;;;;;;1926811;74;21128;-70
2021/03/30 04:48:12;;;;;;;18.23;10.53;;;12.10;99.90;;;;;;1921725;74;21069;-71
2021/03/30 04:50:39;;;;;;;24.77;10.43;;;12.10;99.90;;;;;;1916200;74;21046;-70
2021/03/30 04:53:07;;;;;;;20.43;10.98;;;12.10;99.90;;;;;;1913778;74;21167;-70
2021/03/30 04:55:35;;;;;;;18.07;10.55;;;12.20;99.90;;;;;;1921832;72;21116;-71
2021/03/30 04:58:02;;;;;;;24.40;11.48;;;12.20;99.90;;;;;;1916504;72;21011;-71
2021/03/30 05:00:30;;;;;;;24.60;10.80;;;12.30;99.90;;;;;;1920926;72;21082;-69
2021/03/30 05:02:58;;;;;;;21.35;10.65;;;12.40;99.90;;;;;;1921475;74;21082;-71
2021/03/30 05:05:25;;;;;;;14.60;10.00;;;12.50;99.90;;;;;;1918625;72;21157;-71
2021/03/30 05:07:53;;;;;;;21.07;10.32;;;12.60;99.90;;;;;;1923573;72;21014;-70
2021/03/30 05:10:21;;;;;;;19.15;10.25;;;12.70;99.90;;;;;;1927833;72;21143;-70
2021/03/30 05:12:48;;;;;;;17.05;9.70;;;12.60;99.90;;;;;;1921067;74;21148;-71
2021/03/30 05:15:16;;;;;;;18.77;9.90;;;12.50;99.90;;;;;;1924429;74;21106;-71
2021/03/30 05:17:43;;;;;;;16.42;9.88;;;12.50;99.90;;;;;;1918225;74;21081;-71
2021/03/30 05:20:11;;;;;;;16.52;10.08;;;12.50;99.90;;;;;;1919144;73;21054;-71
2021/03/30 05:22:39;;;;;;;16.82;10.03;;;12.40;99.90;;;;;;1922394;74;21938;-70
2021/03/30 05:25:08;;;;;;;16.50;10.72;;;12.20;99.90;;;;;;1920573;72;21192;-71
2021/03/30 05:27:37;;;;;;;18.27;10.25;;;12.30;99.90;;;;;;1921291;74;21252;-73
2021/03/30 05:30:07;;;;;;;16.65;9.73;;;12.30;99.90;;;;;;1920890;72;21082;-71
2021/03/30 05:32:34;;;;;;;18.27;10.08;;;12.30;99.90;;;;;;1923219;74;21535;-71
2021/03/30 05:35:02;;;;;;;17.80;9.85;;;12.40;99.90;;;;;;1920557;72;22351;-71
2021/03/30 05:37:29;;;;;;;22.22;10.40;;;12.50;99.90;;;;;;1921550;72;22121;-70
2021/03/30 05:39:57;;;;;;;19.70;10.05;;;12.70;99.90;;;;;;1918441;74;21078;-74
2021/03/30 05:42:24;;;;;;;20.70;10.05;;;12.70;99.80;;;;;;1918018;73;21170;-70
2021/03/30 05:44:55;;;;;;;16.85;9.78;;;12.70;98.70;;;;;;1918014;74;21074;-70
2021/03/30 05:47:29;;;;;;;16.20;9.48;;;12.90;98.70;;;;;;1916025;74;21050;-70
2021/03/30 05:49:53;;;;;;;18.73;10.23;;;13.00;99.30;;;;;;1917357;72;21141;-73
2021/03/30 05:52:45;;;;;;;17.30;9.78;;;13.00;98.50;;;;;;1920342;72;21046;-72
2021/03/30 05:55:15;;;;;;;22.13;10.38;;;13.10;98.10;;;;;;1912671;74;21197;-74
2021/03/30 05:57:44;;;;;;;20.60;9.55;;;13.20;97.60;;;;;;1904225;73;21058;-73
2021/03/30 06:00:13;;;;;;;21.65;10.13;;;13.20;97.50;;;;;;1987450;71;21597;-74
2021/03/30 06:02:47;;;;;;;17.73;9.08;;;13.20;97.00;;;;;;1994294;70;20993;-73
2021/03/30 06:05:17;;;;;;;20.92;10.08;;;13.30;97.30;;;;;;1992410;71;21040;-73
2021/03/30 06:07:45;;;;;;;18.07;10.35;;;13.40;97.30;;;;;;1910341;73;21094;-73
2021/03/30 06:10:18;;;;;;;15.60;9.28;;;13.50;96.80;;;;;;1916386;73;21073;-73
2021/03/30 06:12:46;;;;;;;19.42;9.33;;;13.60;96.70;;;;;;1910750;74;21097;-73
2021/03/30 06:15:14;;;;;;;19.77;10.03;;;13.60;96.60;;;;;;1922608;73;21539;-78
2021/03/30 06:17:50;;;;;;;16.75;9.83;;;13.70;96.80;;;;;;1901660;74;21446;-80
2021/03/30 06:20:35;;;;;;;21.77;10.65;;;13.70;96.20;;;;;;1937434;73;21173;-74
2021/03/30 06:23:07;;;;;;;17.80;10.28;;;13.70;96.30;;;;;;1946474;72;21378;-72
2021/03/30 06:25:45;;;;;;;18.73;10.32;;;13.80;96.50;;;;;;1940289;73;21086;-72
2021/03/30 06:28:21;;;;;;;16.87;10.05;;;13.80;96.30;;;;;;1907839;74;21137;-72
2021/03/30 06:31:11;;;;;;;18.77;9.90;;;13.80;95.60;;;;;;1990952;70;21084;-72
2021/03/30 06:33:56;;;;;;;17.42;10.03;;;13.90;96.20;;;;;;1988367;70;21088;-73
2021/03/30 06:36:32;;;;;;;21.48;9.95;;;14.00;96.20;;;;;;1987337;70;21168;-72
2021/03/30 06:39:05;;;;;;;21.30;10.05;;;14.10;95.60;;;;;;1985799;70;21106;-71
2021/03/30 06:41:42;;;;;;;17.82;10.60;;;14.10;95.60;;;;;;1915992;73;21113;-71
2021/03/30 06:44:28;;;;;;;21.10;9.70;;;14.20;96.10;;;;;;1910787;74;21571;-72
2021/03/30 06:47:08;;;;;;;17.98;9.58;;;14.30;95.10;;;;;;1913874;73;21176;-72
2021/03/30 06:49:37;;;;;;;22.35;9.70;;;14.30;94.90;;;;;;1912123;73;21155;-72
2021/03/30 06:52:16;;;;;;;16.57;9.25;;;14.30;94.90;;;;;;1916036;73;21245;-72
2021/03/30 06:54:52;;;;;;;20.97;9.78;;;14.40;95.20;;;;;;1916236;73;21190;-71
2021/03/30 06:57:44;;;;;;;22.35;9.68;;;14.50;95.50;;;;;;1915663;74;21194;-71
2021/03/30 07:00:14;;;;;;;22.45;9.70;;;14.50;94.90;;;;;;1919461;74;21609;-72
2021/03/30 07:02:48;;;;;;;21.73;10.03;;;14.50;94.20;;;;;;1922707;73;21015;-72
2021/03/30 07:05:42;;;;;;;21.02;9.65;;;14.50;94.30;;;;;;1920246;74;21129;-73
2021/03/30 07:08:14;;;;;;;22.20;10.05;;;14.60;94.30;;;;;;1887064;74;21166;-71
2021/03/30 07:10:52;;;;;;;20.08;9.88;;;14.60;94.80;;;;;;1888106;74;21087;-72
2021/03/30 07:13:22;;;;;;;17.15;9.58;;;14.70;94.10;;;;;;1885403;76;21095;-72
2021/03/30 07:15:56;;;;;;;29.27;11.10;;;14.80;94.00;;;;;;1879601;74;21259;-71
2021/03/30 07:18:39;;;;;;;21.10;9.53;;;14.80;94.10;;;;;;1880558;74;21187;-71
2021/03/30 07:21:12;;;;;;;20.00;9.78;;;14.80;94.40;;;;;;1886009;74;21266;-71
2021/03/30 07:23:43;;;;;;;21.82;9.43;;;14.80;94.70;;;;;;1891081;74;21118;-71
2021/03/30 07:26:14;;;;;;;19.70;9.43;;;14.90;94.80;;;;;;1887531;74;21198;-71
2021/03/30 07:29:01;;;;;;;15.85;9.30;;;15.00;94.40;;;;;;1889780;74;21130;-70
2021/03/30 07:31:32;;;;;;;13.28;8.05;;;15.10;95.20;;;;;;1889268;74;21236;-71
2021/03/30 07:34:10;;;;;;;18.95;9.53;;;15.20;94.80;;;;;;1885562;74;21155;-72
2021/03/30 07:36:49;;;;;;;20.35;10.28;;;15.20;94.50;;;;;;1890747;74;21235;-71
2021/03/30 07:39:19;;;;;;;18.55;8.75;;;15.20;94.50;;;;;;1884573;74;21224;-72
2021/03/30 07:41:48;;;;;;;21.20;8.63;;;15.20;94.80;;;;;;1887776;74;21170;-71
2021/03/30 07:44:16;;;;;;;22.93;9.60;;;15.30;95.00;;;;;;1888339;74;22047;-71
2021/03/30 07:46:44;;;;;;;20.43;8.90;;;15.40;95.10;;;;;;1889704;74;21126;-71
2021/03/30 07:49:12;;;;;;;17.50;9.38;;;15.40;95.10;;;;;;1889336;74;21166;-71
2021/03/30 07:51:44;;;;;;;24.45;8.88;;;15.30;95.30;;;;;;1888608;74;21179;-71
2021/03/30 07:54:16;;;;;;;20.80;9.23;;;15.30;95.70;;;;;;1888418;74;21316;-71
2021/03/30 07:56:46;;;;;;;21.40;8.38;;;15.40;96.20;;;;;;1884112;74;21165;-70
2021/03/30 07:59:43;;;;;;;20.57;8.68;;;15.50;95.90;;;;;;1889668;74;21177;-71
2021/03/30 08:02:20;;;;;;;21.00;8.80;;;15.60;96.30;;;;;;1887561;74;21130;-71
2021/03/30 08:05:05;;;;;;;19.32;8.70;;;15.70;95.90;;;;;;1884201;74;21604;-72
2021/03/30 08:07:53;;;;;;;20.65;8.90;;;15.70;96.30;;;;;;1888818;74;21169;-71
2021/03/30 08:10:25;;;;;;;22.60;9.40;;;15.80;96.20;;;;;;1885863;74;21635;-70
2021/03/30 08:13:25;;;;;;;16.77;8.35;;;15.80;96.30;;;;;;1882231;74;21122;-71
2021/03/30 08:15:54;;;;;;;20.08;9.03;;;15.90;97.00;;;;;;1882451;74;21593;-70
2021/03/30 08:18:24;;;;;;;21.27;8.43;;;16.00;96.90;;;;;;1885049;74;21055;-71
2021/03/30 08:21:07;;;;;;;19.50;8.13;;;16.10;96.80;;;;;;1888702;74;21083;-71
2021/03/30 08:23:56;;;;;;;17.07;8.18;;;16.20;97.40;;;;;;1886425;74;21214;-71
2021/03/30 08:26:31;;;;;;;14.18;8.10;;;16.20;97.10;;;;;;1886131;74;21232;-71
2021/03/30 08:29:13;;;;;;;16.42;8.15;;;16.30;98.00;;;;;;1889053;74;21063;-71
2021/03/30 08:31:49;;;;;;;15.90;7.67;;;16.30;98.10;;;;;;1885512;74;21047;-70
2021/03/30 08:34:19;;;;;;;17.52;7.95;;;16.50;97.90;;;;;;1888118;74;21446;-70
2021/03/30 08:36:55;;;;;;;19.07;6.90;;;16.60;98.70;;;;;;1889959;74;21184;-69
2021/03/30 08:39:26;;;;;;;13.62;7.85;;;16.70;98.60;;;;;;1882753;74;21219;-70
2021/03/30 08:41:56;;;;;;;18.75;6.95;;;16.80;99.10;;;;;;1885017;74;21684;-70
2021/03/30 08:44:49;;;;;;;17.12;6.67;;;16.90;98.90;;;;;;1890467;74;21106;-70
2021/03/30 08:47:32;;;;;;;15.63;6.67;;;17.00;99.60;;;;;;1886540;74;21110;-70
2021/03/30 08:50:17;;;;;;;14.07;6.78;;;17.10;99.90;;;;;;1879466;74;21662;-70
2021/03/30 08:52:45;;;;;;;19.52;6.75;;;17.10;99.90;;;;;;1882004;74;21110;-69
2021/03/30 08:55:13;;;;;;;17.17;6.85;;;17.20;99.80;;;;;;1885279;74;21130;-68
2021/03/30 08:57:46;;;;;;;12.80;6.60;;;17.20;99.90;;;;;;1890917;74;21171;-69
2021/03/30 09:00:15;;;;;;;17.90;7.62;;;17.30;99.90;;;;;;1887365;74;21557;-70
2021/03/30 09:02:44;;;;;;;19.40;6.65;;;17.40;99.70;;;;;;1887968;74;21595;-70
2021/03/30 09:05:19;;;;;;;15.53;5.85;;;17.50;99.60;;;;;;1888758;74;21643;-71
2021/03/30 09:07:48;;;;;;;13.65;6.45;;;17.50;99.90;;;;;;1888733;74;21194;-71
2021/03/30 09:10:17;;;;;;;14.78;6.10;;;17.60;99.50;;;;;;1888195;74;21140;-70
2021/03/30 09:12:49;;;;;;;13.53;5.58;;;17.60;99.70;;;;;;1881710;74;21777;-69
2021/03/30 09:15:16;;;;;;;13.62;5.80;;;17.70;99.70;;;;;;1887448;74;21599;-71
2021/03/30 09:18:01;;;;;;;16.42;6.20;;;17.80;99.90;;;;;;1883370;74;21571;-69
2021/03/30 09:20:30;;;;;;;17.10;5.70;;;17.90;99.40;;;;;;1889623;74;21079;-67
2021/03/30 09:23:02;;;;;;;12.40;5.53;;;18.00;99.90;;;;;;1887383;74;21067;-67
2021/03/30 09:25:42;;;;;;;11.38;5.10;;;17.90;99.60;;;;;;1890144;74;21158;-67
2021/03/30 09:28:05;;;;;;;13.68;4.92;;;18.00;99.70;;;;;;1880210;74;21110;-68
2021/03/30 09:30:36;;;;;;;14.35;5.40;;;18.10;99.80;;;;;;1886133;74;21142;-68
2021/03/30 09:33:03;;;;;;;10.28;4.50;;;18.20;99.40;;;;;;1889738;74;21091;-68
2021/03/30 09:35:31;;;;;;;12.75;4.62;;;18.30;99.30;;;;;;1886342;74;21133;-68
2021/03/30 09:38:01;;;;;;;12.15;4.22;;;18.40;99.90;;;;;;1890978;74;21533;-67
2021/03/30 09:40:35;;;;;;;9.28;4.70;;;18.50;99.70;;;;;;1885402;74;21175;-68
2021/03/30 09:43:11;;;;;;;8.50;4.33;;;18.60;98.60;;;;;;1886071;74;21161;-71
2021/03/30 09:45:40;;;;;;;15.35;4.80;;;18.80;99.50;;;;;;1885983;74;21731;-69
2021/03/30 09:48:13;;;;;;;9.45;4.35;;;18.80;98.40;;;;;;1890105;74;21079;-67
2021/03/30 09:50:46;;;;;;;12.47;4.75;;;18.80;98.10;;;;;;1890998;74;21176;-67
2021/03/30 09:53:14;;;;;;;10.05;4.28;;;18.90;97.90;;;;;;1887175;74;21114;-67
2021/03/30 09:55:47;;;;;;;13.15;4.12;;;18.90;98.50;;;;;;1886810;74;21677;-67
2021/03/30 09:58:18;;;;;;;;;;;19.00;98.90;;;;;;1889375;74;21122;-67
2021/03/30 10:00:46;;;;;;;9.45;4.10;;;19.10;98.60;;;;;;1887701;74;20217;-68
2021/03/30 10:03:15;;;;;;;11.22;4.15;;;19.30;99.00;;;;;;1886170;74;21684;-68
2021/03/30 10:05:44;;;;;;;12.53;4.55;;;19.40;97.80;;;;;;1892996;74;21089;-67
2021/03/30 10:08:21;;;;;;;10.13;4.53;;;19.50;96.50;;;;;;1887539;74;21069;-68
2021/03/30 10:10:51;;;;;;;12.90;4.20;;;19.60;97.10;;;;;;1890991;74;22293;-69
2021/03/30 10:13:32;;;;;;;10.35;4.42;;;19.60;97.80;;;;;;1883488;74;21079;-68
2021/03/30 10:16:02;;;;;;;8.23;3.62;;;19.50;96.50;;;;;;1883355;74;21107;-68
2021/03/30 10:18:30;;;;;;;11.70;4.42;;;19.60;97.10;;;;;;1888236;74;21642;-68
2021/03/30 10:21:00;;;;;;;9.95;4.20;;;19.80;97.90;;;;;;1888511;74;21097;-68
2021/03/30 10:23:36;;;;;;;18.85;4.80;;;19.90;97.10;;;;;;1885349;74;21156;-66
2021/03/30 10:26:06;;;;;;;11.55;4.83;;;20.00;97.30;;;;;;1887043;74;21343;-67
2021/03/30 10:28:34;;;;;;;10.65;4.75;;;20.00;96.30;;;;;;1873932;74;21165;-69
2021/03/30 10:31:03;;;;;;;14.25;5.00;;;20.10;95.70;;;;;;1883750;74;21156;-67
2021/03/30 10:33:43;;;;;;;12.20;4.95;;;20.20;95.80;;;;;;1881958;74;21114;-68
2021/03/30 10:36:15;;;;;;;10.53;4.58;;;20.20;95.10;;;;;;1883798;74;21232;-68
2021/03/30 10:39:02;;;;;;;12.63;5.53;;;20.40;94.30;;;;;;1886965;74;21239;-68
2021/03/30 10:41:36;;;;;;;13.38;5.20;;;20.50;93.80;;;;;;1884444;74;21166;-69
2021/03/30 10:44:04;;;;;;;14.55;5.08;;;20.70;94.00;;;;;;1888261;74;21670;-67
2021/03/30 10:46:47;;;;;;;11.75;5.28;;;20.70;93.90;;;;;;1888178;74;21159;-68
2021/03/30 10:49:15;;;;;;;15.65;5.50;;;20.90;94.00;;;;;;1885362;74;21292;-67
2021/03/30 10:51:46;;;;;;;9.63;4.97;;;20.90;92.20;;;;;;1885495;74;21176;-67
2021/03/30 10:54:18;;;;;;;12.45;4.60;;;20.90;92.40;;;;;;1886671;74;21152;-68
2021/03/30 10:56:48;;;;;;;14.47;4.80;;;20.90;91.60;;;;;;1885978;74;21193;-67
2021/03/30 10:59:15;;;;;;;12.95;4.08;;;21.00;92.00;;;;;;1884759;74;21130;-67
2021/03/30 11:01:43;;;;;;;14.23;4.47;;;21.20;91.50;;;;;;1889692;74;21279;-67
2021/03/30 11:04:11;;;;;;;11.35;4.42;;;21.30;90.60;;;;;;1890607;74;21110;-67
2021/03/30 11:06:38;;;;;;;12.55;4.50;;;21.40;90.30;;;;;;1889542;74;21233;-67
2021/03/30 11:09:06;;;;;;;14.83;4.33;;;21.50;91.70;;;;;;1885154;74;21032;-67
2021/03/30 11:11:35;;;;;;;14.07;4.78;;;21.60;91.60;;;;;;1885859;74;21105;-67
2021/03/30 11:14:03;;;;;;;16.77;5.85;;;21.70;91.20;;;;;;1894379;74;21158;-68
2021/03/30 11:16:31;;;;;;;11.83;5.12;;;21.90;90.30;;;;;;1889428;74;21091;-67
2021/03/30 11:18:58;;;;;;;12.20;5.00;;;21.80;90.10;;;;;;1885192;74;21087;-68
2021/03/30 11:21:26;;;;;;;12.15;5.30;;;21.70;88.40;;;;;;1891155;74;21141;-68
2021/03/30 11:24:03;;;;;;;11.45;5.05;;;21.80;88.30;;;;;;1889193;74;21204;-68
2021/03/30 11:26:25;;;;;;;;;;;21.80;89.60;;;;;;1893229;74;21228;-68
2021/03/30 11:28:53;;;;;;;12.98;4.97;;;21.90;87.70;;;;;;1880090;74;20402;-68
2021/03/30 11:34:12;;;;;;;10.35;4.87;;;22.20;86.50;;;;;;1892264;74;21239;-68
2021/03/30 11:36:31;;;;;;;13.40;4.92;;;22.30;84.80;;;;;;1886954;74;21186;-68
2021/03/30 11:38:57;;;;;;;14.23;4.45;;;22.50;84.50;;;;;;1885783;74;21253;-68
2021/03/30 11:41:25;;;;;;;12.40;4.60;;;22.60;81.90;;;;;;1889383;74;21118;-71
2021/03/30 11:43:52;;;;;;;8.45;4.40;;;22.80;82.10;;;;;;1889786;74;21098;-68
2021/03/30 11:46:20;;;;;;;11.53;4.42;;;23.00;81.10;;;;;;1885210;74;21130;-68
2021/03/30 11:48:47;;;;;;;14.93;5.30;;;23.10;77.20;;;;;;1887452;74;21722;-68
2021/03/30 11:51:15;;;;;;;11.90;4.72;;;23.10;75.40;;;;;;1889763;74;21126;-68
2021/03/30 11:53:44;;;;;;;11.12;4.60;;;23.20;76.70;;;;;;1888560;74;21240;-68
2021/03/30 11:56:12;;;;;;;13.35;4.95;;;23.30;76.20;;;;;;1889881;74;21152;-73
2021/03/30 11:58:40;;;;;;;10.68;5.85;;;23.40;76.50;;;;;;1890310;74;21081;-73
2021/03/30 12:01:08;;;;;;;10.58;5.08;;;23.50;78.30;;;;;;1889092;74;21115;-72
2021/03/30 12:03:38;;;;;;;12.18;4.72;;;23.80;80.80;;;;;;1896763;74;21066;-72
2021/03/30 12:06:06;;;;;;;10.68;5.67;;;24.20;76.30;;;;;;1890347;74;21125;-72
2021/03/30 12:08:35;;;;;;;14.47;6.53;;;24.40;73.90;;;;;;1888952;74;21104;-72
2021/03/30 12:11:03;;;;;;;11.73;6.12;;;24.50;73.30;;;;;;1882948;74;21486;-71
2021/03/30 12:13:30;;;;;;;14.53;6.47;;;24.80;74.20;;;;;;1893108;74;21042;-72
2021/03/30 12:15:58;;;;;;;12.15;5.53;;;25.30;70.30;;;;;;1882852;74;21653;-72
2021/03/30 12:18:25;;;;;;;17.12;6.85;;;25.50;69.10;;;;;;1888018;74;21505;-71
2021/03/30 12:20:53;;;;;;;13.22;5.55;;;25.70;67.10;;;;;;1892831;74;21101;-71
2021/03/30 12:23:20;;;;;;;11.43;6.00;;;25.90;66.40;;;;;;1891564;74;21095;-71
2021/03/30 12:25:48;;;;;;;14.23;6.17;;;26.10;65.10;;;;;;1885165;74;21278;-71
2021/03/30 12:28:15;;;;;;;14.25;6.78;;;26.00;62.30;;;;;;1885928;74;21639;-72
2021/03/30 12:30:43;;;;;;;13.40;6.37;;;26.10;61.30;;;;;;1889293;74;21604;-71
2021/03/30 12:33:10;;;;;;;17.92;7.03;;;26.30;63.20;;;;;;1891165;74;21098;-72
2021/03/30 12:35:38;;;;;;;11.12;6.15;;;26.30;59.30;;;;;;1890574;74;21253;-68
2021/03/30 12:38:06;;;;;;;13.62;6.92;;;26.40;60.00;;;;;;1888660;74;21180;-71
2021/03/30 12:40:35;;;;;;;16.57;5.40;;;26.60;57.90;;;;;;1889176;74;21207;-69
2021/03/30 12:43:02;;;;;;;14.33;6.05;;;27.00;59.30;;;;;;1883910;74;21196;-71
2021/03/30 12:45:33;;;;;;;16.02;6.70;;;27.50;57.40;;;;;;1888062;74;21538;-70
2021/03/30 12:47:59;;;;;;;10.80;5.30;;;28.00;57.60;;;;;;1885800;74;21162;-72
2021/03/30 12:50:28;;;;;;;12.93;6.37;;;28.40;58.60;;;;;;1886559;74;21172;-70
2021/03/30 12:52:56;;;;;;;16.15;6.03;;;28.70;56.20;;;;;;1886187;74;21638;-69
2021/03/30 12:55:24;;;;;;;12.60;5.40;;;28.90;53.70;;;;;;1883874;74;21162;-69